High Crest, New Jersey
Current Conditions -  °F | °C
As of 7:53 AM on Saturday 20 Dec 2014 (Local Time) from KCDW Reporting Station
Overcast Overcast  
Wind Chill: 30°   Ceiling: 2400
Heat Index: 30°   Visibility: 10mi
Dew Point: 21°   Wind: 3mph
Humidity: 69%   Direction: 30°NNE
Pressure: 30.27"   Gusts: NA
Location:  40.9863°N, 74.383°W
Report Text: KCDW 201253Z AUTO 03003KT 10SM OVC024 M01/M06 A3027 RMK AO2 SLP257 T10111061 TSNO
Loading
Personal Weather Stations






























Interactive Weather Map New forecast layout! Learn more

10-Day Weather Forecast

Advertisements
Track Severe Weather on mobile